MET'MAP v2.0
soon released !

Expected late october,
this new version will be
more efficient, smarter,
and hosted on a brand new
server x3 powerfull...
...and still free !


Not compatible ?
Try the mobile version !

LOG IN : | Subscribe | Disclaimer | Who is Orbifly ? |
ICAO code :
Legend : VFR Marginal VFR IFR Intensive IFR Very Intensive IFR
Visi :
Ceiling :
>= 8 km
>= 3000ft
5 to 8 km
1000 to 3000 ft
1500m to 5 km
500 to 1000 ft
800 to 1500m
200 to 500 ft
< 800m
< 200 ft

METAR - ETHC Celle Airport - 27 May 2020 12:09 UTC - Data Source NOAA   


- Airport Elevation : 129 ft
- IATA code : ZCN
- No reported NOTAMs.


ETHC - Celle Airport

Latest METAR recorded : 2015/08/11 07:38 ETHC 110738Z VRB03KT 9999 BKN008 SCT120 19/17 Q1017 GRN WHT TEMPO GRN
TAF TAF ETHC
Valid from the 27 at 08:00 until the 27 at 17:00 UTC


270724Z 2708/2717 28005KT 9999 NSW FEW035 SCT250
BECMG 2713/2715 32008G18KT 9999 NSW FEW050 SCT070

Source NOAA


MET'MAP, your aeronautical weather chart ! - Copyright ORBIFLY December 2007

Programming & Development : Alexandra Zaïnal
Co-Developer : Marc-Olivier Méhu
Technical & hardware support : Manuel Goepfert
Concept & Financing : Baudouin d'Aumeries